Orbital elements of EMISAT
| Launched | 31 March 2019 |
| Flight ended | – |
| Launch site | Satish Dhawan Space Centre, India (Formerly Sriharikota Launching Range) |
| Owner | India |
| NORAD ID | 44078 |
| Date fetched |
Epoch osculation |
Inc. [°] |
Ecc. | RA asc node [hr] |
Arg Peri. [°] |
Mean anom [°] |
Mean motion [rev/day] |
Abs. mag |
| Date fetched |
Epoch osculation |
Inc. [°] |
Ecc. | RA asc node [hr] |
Arg Peri. [°] |
Mean anom [°] |
Mean motion [rev/day] |
Abs. mag |
| 2026 May 01 17:56 | 2026 May 01 12:00:16 | 98.4683 | 0.00186 | 12.0366 | 2.5710 | 357.5572 | 14.43666 | – |
| 2026 Apr 30 17:56 | 2026 Apr 30 11:03:12 | 98.4685 | 0.00187 | 11.9676 | 5.6998 | 357.5572 | 14.43666 | – |
| 2026 Apr 29 17:57 | 2026 Apr 29 06:46:32 | 98.4686 | 0.00187 | 11.8895 | 9.2073 | 357.5572 | 14.43666 | – |
| 2026 Apr 28 17:56 | 2026 Apr 28 12:28:42 | 98.4687 | 0.00188 | 11.8389 | 11.5382 | 357.5572 | 14.43666 | – |
| 2026 Apr 27 17:58 | 2026 Apr 27 11:31:38 | 98.4686 | 0.00188 | 11.7699 | 14.6288 | 357.5572 | 14.43666 | – |
| 2026 Apr 26 17:58 | 2026 Apr 26 12:14:23 | 98.4685 | 0.00189 | 11.7056 | 17.5190 | 357.5572 | 14.43666 | – |
| 2026 Apr 25 17:58 | 2026 Apr 25 11:17:19 | 98.4684 | 0.00190 | 11.6366 | 20.5375 | 357.5572 | 14.43666 | – |
| 2026 Apr 24 17:59 | 2026 Apr 24 12:00:04 | 98.4684 | 0.00190 | 11.5722 | 23.4347 | 357.5572 | 14.43666 | – |
| 2026 Apr 23 17:57 | 2026 Apr 23 07:43:24 | 98.4683 | 0.00191 | 11.4941 | 26.8852 | 357.5572 | 14.43666 | – |
| 2026 Apr 22 17:57 | 2026 Apr 22 06:46:20 | 98.4685 | 0.00191 | 11.4251 | 29.9470 | 357.5572 | 14.43666 | – |
| 2026 Apr 21 17:57 | 2026 Apr 21 12:28:29 | 98.4687 | 0.00192 | 11.3745 | 32.1810 | 357.5572 | 14.43666 | – |
| 2026 Apr 20 17:57 | 2026 Apr 20 11:31:26 | 98.4690 | 0.00192 | 11.3056 | 35.1988 | 357.5572 | 14.43666 | – |
| 2026 Apr 19 17:58 | 2026 Apr 19 12:14:10 | 98.4694 | 0.00193 | 11.2412 | 37.9649 | 357.5572 | 14.43666 | – |
| 2026 Apr 18 17:56 | 2026 Apr 18 06:17:42 | 98.4700 | 0.00194 | 11.1584 | 41.6633 | 357.5572 | 14.43666 | – |
| 2026 Apr 16 17:57 | 2026 Apr 16 07:43:10 | 98.4705 | 0.00195 | 11.0297 | 47.0673 | 357.5572 | 14.43666 | – |
| 2026 Apr 14 17:57 | 2026 Apr 14 12:28:14 | 98.4708 | 0.00196 | 10.9102 | 52.2153 | 357.5572 | 14.43666 | – |
| 2026 Apr 13 17:57 | 2026 Apr 13 06:31:45 | 98.4708 | 0.00196 | 10.8274 | 55.7754 | 357.5572 | 14.43666 | – |
| 2026 Apr 12 17:57 | 2026 Apr 12 12:13:53 | 98.4708 | 0.00196 | 10.7768 | 57.9424 | 357.5572 | 14.43666 | – |
| 2026 Apr 11 17:57 | 2026 Apr 11 11:16:48 | 98.4708 | 0.00197 | 10.7078 | 60.9348 | 357.5572 | 14.43666 | – |
| 2026 Apr 10 17:58 | 2026 Apr 10 07:00:07 | 98.4706 | 0.00197 | 10.6296 | 64.2861 | 357.5572 | 14.43666 | – |
| 2026 Apr 09 18:01 | 2026 Apr 09 07:42:51 | 98.4707 | 0.00197 | 10.5652 | 67.0152 | 357.5572 | 14.43666 | – |
| 2026 Apr 08 17:57 | 2026 Apr 08 06:45:46 | 98.4709 | 0.00197 | 10.4963 | 69.9594 | 357.5572 | 14.43666 | – |
| 2026 Apr 07 17:57 | 2026 Apr 07 05:48:41 | 98.4710 | 0.00198 | 10.4273 | 72.9103 | 357.5572 | 14.43666 | – |
| 2026 Apr 06 17:57 | 2026 Apr 06 06:31:24 | 98.4713 | 0.00198 | 10.3629 | 75.6746 | 357.5572 | 14.43666 | – |
| 2026 Apr 05 17:56 | 2026 Apr 05 12:13:33 | 98.4715 | 0.00198 | 10.3123 | 77.7747 | 357.5572 | 14.43666 | – |
| 2026 Apr 04 17:57 | 2026 Apr 04 06:17:03 | 98.4721 | 0.00198 | 10.2296 | 81.3253 | 357.5572 | 14.43666 | – |